Time;durP1;ratioP1;P1;durP2;ratioP2;P2;SDS_P1;SDS_P2;PMS_P1;PMS_P2;Temp;Humidity;BMP_temperature;BMP_pressure;BME280_temperature;BME280_humidity;BME280_pressure;Samples;Min_cycle;Max_cycle;Signal;HPM_P1;HPM_P2
2022/05/27 00:01:07;;;;;;;5.50;0.40;;;16.20;1.00;;;;;;5116824;28;20480;-55
2022/05/27 00:03:35;;;;;;;0.70;0.30;;;16.20;99.90;;;;;;5116074;28;20528;-56
2022/05/27 00:06:02;;;;;;;0.80;0.40;;;16.20;99.90;;;;;;5117643;28;20527;-54
2022/05/27 00:08:29;;;;;;;0.60;0.30;;;16.20;1.00;;;;;;5117549;28;20512;-56
2022/05/27 00:10:56;;;;;;;0.60;0.40;;;16.10;1.00;;;;;;5116048;28;20551;-56
2022/05/27 00:13:23;;;;;;;0.43;0.33;;;16.10;1.00;;;;;;5115821;28;20567;-55
2022/05/27 00:15:50;;;;;;;0.60;0.30;;;16.00;49.00;;;;;;5117247;28;20550;-56
2022/05/27 00:18:19;;;;;;;0.50;0.40;;;15.90;99.90;;;;;;5117268;28;20539;-56
2022/05/27 00:20:47;;;;;;;0.60;0.40;;;15.80;1.00;;;;;;5115951;28;20463;-55
2022/05/27 00:23:14;;;;;;;0.40;0.30;;;15.80;1.00;;;;;;5116480;28;20445;-51
2022/05/27 00:25:41;;;;;;;0.40;0.30;;;15.70;1.00;;;;;;5117054;28;20525;-56
2022/05/27 00:28:08;;;;;;;1.37;0.30;;;15.80;1.00;;;;;;5117107;28;20468;-55
2022/05/27 00:30:35;;;;;;;1.60;0.40;;;15.80;1.00;;;;;;5117198;28;20555;-56
2022/05/27 00:33:03;;;;;;;0.50;0.30;;;15.70;1.00;;;;;;5117310;28;20571;-55
2022/05/27 00:35:32;;;;;;;0.57;0.40;;;15.70;63.20;;;;;;5118136;28;20555;-54
2022/05/27 00:37:59;;;;;;;0.60;0.30;;;15.70;99.90;;;;;;5117536;28;20531;-56
2022/05/27 00:40:28;;;;;;;0.70;0.30;;;15.80;99.90;;;;;;5117348;28;20456;-55
2022/05/27 00:42:54;;;;;;;0.57;0.30;;;15.70;1.00;;;;;;5115989;28;20535;-54
2022/05/27 00:45:24;;;;;;;1.20;0.40;;;15.70;99.90;;;;;;5116529;28;20544;-53
2022/05/27 00:47:53;;;;;;;0.53;0.30;;;15.70;99.90;;;;;;5116588;28;20962;-55
2022/05/27 00:50:25;;;;;;;0.70;0.30;;;15.70;1.00;;;;;;5117224;28;20556;-56
2022/05/27 00:52:54;;;;;;;0.40;0.30;;;15.60;99.90;;;;;;5116534;28;20907;-56
2022/05/27 00:55:24;;;;;;;0.50;0.30;;;15.60;1.00;;;;;;5117178;28;20551;-52
2022/05/27 00:57:54;;;;;;;0.40;0.30;;;15.70;99.90;;;;;;5116780;28;20531;-53
2022/05/27 01:00:23;;;;;;;0.50;0.37;;;15.70;99.90;;;;;;5116981;28;20949;-56
2022/05/27 01:02:51;;;;;;;0.60;0.40;;;15.60;99.90;;;;;;5115792;28;20441;-54
2022/05/27 01:05:21;;;;;;;1.00;0.30;;;15.60;1.00;;;;;;5114374;28;20547;-55
2022/05/27 01:07:48;;;;;;;0.80;0.30;;;15.50;99.90;;;;;;5115777;28;20543;-56
2022/05/27 01:10:20;;;;;;;0.60;0.30;;;15.40;1.00;;;;;;5115436;28;20535;-55
2022/05/27 01:13:06;;;;;;;0.50;0.30;;;15.40;27.80;;;;;;5115183;28;20587;-62
2022/05/27 01:15:40;;;;;;;0.60;0.40;;;15.30;99.90;;;;;;5115200;28;20563;-56
2022/05/27 01:20:18;;;;;;;1.03;0.40;;;15.30;1.00;;;;;;5115283;28;20811;-57
2022/05/27 01:21:16;;;;;;;0.80;0.30;;;15.20;1.00;;;;;;5115444;28;20450;-54
2022/05/27 01:24:16;;;;;;;0.53;0.30;;;15.10;99.90;;;;;;5116336;28;20500;-52
2022/05/27 01:27:10;;;;;;;0.67;0.33;;;15.10;99.90;;;;;;5116230;28;20834;-53
2022/05/27 01:30:18;;;;;;;0.60;0.33;;;15.10;99.90;;;;;;5113892;28;20547;-54
2022/05/27 01:32:55;;;;;;;0.60;0.30;;;15.20;68.50;;;;;;5113537;28;20482;-52
2022/05/27 01:35:43;;;;;;;0.47;0.30;;;15.20;2.90;;;;;;5115230;28;20558;-54
2022/05/27 01:38:15;;;;;;;1.10;0.30;;;15.20;21.40;;;;;;5115611;28;20960;-55
2022/05/27 01:40:55;;;;;;;3.13;0.50;;;15.00;99.90;;;;;;5115913;28;20541;-56
2022/05/27 01:43:27;;;;;;;0.63;0.37;;;14.90;99.90;;;;;;5115906;28;20539;-55
2022/05/27 01:46:00;;;;;;;0.70;0.30;;;14.90;99.90;;;;;;5115941;28;20830;-55
2022/05/27 01:48:34;;;;;;;0.67;0.40;;;14.90;99.90;;;;;;5116263;28;20487;-52
2022/05/27 01:51:08;;;;;;;1.00;0.30;;;14.90;99.90;;;;;;5115988;28;20528;-49
2022/05/27 01:53:41;;;;;;;1.33;0.40;;;14.80;1.00;;;;;;5116578;28;20587;-53
2022/05/27 01:56:14;;;;;;;0.50;0.30;;;14.80;1.00;;;;;;5116560;28;20524;-54
2022/05/27 01:58:47;;;;;;;0.47;0.30;;;14.80;1.00;;;;;;5116311;28;20465;-57
2022/05/27 02:01:17;;;;;;;0.50;0.30;;;14.80;1.00;;;;;;5116443;28;20535;-55
2022/05/27 02:03:49;;;;;;;1.57;0.40;;;14.80;1.00;;;;;;5116512;28;20487;-55
2022/05/27 02:06:20;;;;;;;0.50;0.30;;;14.70;1.00;;;;;;5116477;28;20476;-54
2022/05/27 02:08:51;;;;;;;0.60;0.30;;;14.70;1.00;;;;;;5114418;28;20523;-53
2022/05/27 02:11:20;;;;;;;0.57;0.30;;;14.70;1.00;;;;;;5113497;28;20527;-56
2022/05/27 02:13:53;;;;;;;0.70;0.30;;;14.70;1.00;;;;;;5119933;28;20472;-55
2022/05/27 02:16:24;;;;;;;0.80;0.30;;;14.80;1.00;;;;;;5120595;28;20534;-55
2022/05/27 02:18:55;;;;;;;0.40;0.30;;;14.80;1.00;;;;;;5117654;28;20536;-56
2022/05/27 02:21:29;;;;;;;0.53;0.40;;;14.80;1.00;;;;;;5115172;28;20542;-56
2022/05/27 02:24:01;;;;;;;0.70;0.40;;;14.80;1.00;;;;;;5120387;28;20526;-56
2022/05/27 02:26:32;;;;;;;0.50;0.30;;;14.80;1.00;;;;;;5120354;28;20899;-57
2022/05/27 02:29:03;;;;;;;0.50;0.30;;;14.80;1.00;;;;;;5120338;28;20893;-52
2022/05/27 02:31:33;;;;;;;1.03;0.40;;;14.70;1.00;;;;;;5119772;28;20480;-53
2022/05/27 02:36:55;;;;;;;1.70;0.40;;;14.70;1.00;;;;;;5119630;28;20509;-54
2022/05/27 02:39:23;;;;;;;0.50;0.40;;;14.80;1.00;;;;;;5120033;28;20803;-50
2022/05/27 02:41:59;;;;;;;0.70;0.37;;;14.90;1.00;;;;;;5120310;28;20468;-56
2022/05/27 02:44:35;;;;;;;0.70;0.30;;;14.90;99.90;;;;;;5119899;28;20459;-55
2022/05/27 02:47:06;;;;;;;0.60;0.30;;;14.80;1.00;;;;;;5119946;28;20436;-53
2022/05/27 02:49:47;;;;;;;0.57;0.30;;;14.80;1.00;;;;;;5119928;28;20563;-55
2022/05/27 02:52:26;;;;;;;0.73;0.40;;;14.80;1.00;;;;;;5119448;28;20540;-56
2022/05/27 02:55:01;;;;;;;0.47;0.30;;;14.80;1.00;;;;;;5119698;28;20549;-56
2022/05/27 02:57:32;;;;;;;0.73;0.40;;;14.70;1.00;;;;;;5119282;28;20536;-55
2022/05/27 03:00:04;;;;;;;0.50;0.30;;;14.70;1.00;;;;;;5119519;28;20459;-56
2022/05/27 03:02:31;;;;;;;1.53;0.30;;;14.60;1.00;;;;;;5119395;28;20535;-54
2022/05/27 03:05:01;;;;;;;0.43;0.30;;;14.50;1.00;;;;;;5118603;28;20535;-51
2022/05/27 03:07:38;;;;;;;0.80;0.30;;;14.50;1.00;;;;;;5118124;28;20445;-55
2022/05/27 03:10:22;;;;;;;0.60;0.40;;;14.50;1.00;;;;;;5118207;28;20945;-56
2022/05/27 03:13:22;;;;;;;0.50;0.30;;;14.50;1.00;;;;;;5118045;28;20540;-55
2022/05/27 03:16:02;;;;;;;0.53;0.33;;;14.50;1.00;;;;;;5117980;28;20542;-57
2022/05/27 03:18:42;;;;;;;0.50;0.30;;;14.60;1.00;;;;;;5117881;28;20966;-56
2022/05/27 03:21:16;;;;;;;0.43;0.30;;;14.60;1.00;;;;;;5117789;28;20830;-52
2022/05/27 03:23:56;;;;;;;1.83;0.40;;;14.50;1.00;;;;;;5117856;28;20829;-57
2022/05/27 03:26:33;;;;;;;0.80;0.40;;;14.60;1.00;;;;;;5118320;28;20535;-55
2022/05/27 03:29:16;;;;;;;0.53;0.40;;;14.60;1.00;;;;;;5117766;28;20544;-54
2022/05/27 03:31:52;;;;;;;1.23;0.40;;;14.60;1.00;;;;;;5118218;28;20527;-56
2022/05/27 03:34:25;;;;;;;0.40;0.20;;;14.70;1.00;;;;;;5118303;28;20570;-56
2022/05/27 03:37:01;;;;;;;0.50;0.30;;;14.80;1.00;;;;;;5118855;28;20476;-56
2022/05/27 03:39:33;;;;;;;0.60;0.30;;;14.80;1.00;;;;;;5118481;28;20547;-56
2022/05/27 03:42:04;;;;;;;1.90;0.40;;;14.80;1.00;;;;;;5117636;28;20433;-56
2022/05/27 03:44:31;;;;;;;0.60;0.40;;;14.90;1.00;;;;;;5109474;28;20528;-56
2022/05/27 03:46:59;;;;;;;0.90;0.40;;;14.90;1.00;;;;;;5117548;28;20531;-52
2022/05/27 03:49:26;;;;;;;0.70;0.40;;;14.90;99.90;;;;;;5116960;28;20559;-52
2022/05/27 03:51:57;;;;;;;0.47;0.30;;;15.00;99.90;;;;;;5117345;28;20876;-56
2022/05/27 03:54:24;;;;;;;0.80;0.40;;;14.90;1.00;;;;;;5116667;28;20583;-52
2022/05/27 03:56:51;;;;;;;0.70;0.40;;;14.80;1.00;;;;;;5116877;28;20448;-55
2022/05/27 03:59:20;;;;;;;0.80;0.40;;;14.80;1.00;;;;;;5118035;28;20449;-56
2022/05/27 04:01:48;;;;;;;0.50;0.30;;;14.70;1.00;;;;;;5117949;28;20509;-51
2022/05/27 04:04:18;;;;;;;0.67;0.50;;;14.70;1.00;;;;;;5118063;28;20512;-53
2022/05/27 04:06:46;;;;;;;0.53;0.40;;;14.60;1.00;;;;;;5117962;28;20532;-52
2022/05/27 04:09:14;;;;;;;0.77;0.40;;;14.60;1.00;;;;;;5118232;28;20589;-54
2022/05/27 04:11:42;;;;;;;0.90;0.40;;;14.50;1.00;;;;;;5118149;28;20445;-56
2022/05/27 04:14:09;;;;;;;3.93;0.40;;;14.60;1.00;;;;;;5112730;28;20492;-58
2022/05/27 04:16:36;;;;;;;0.60;0.40;;;14.60;1.00;;;;;;5114937;28;20520;-56
2022/05/27 04:19:03;;;;;;;0.70;0.40;;;14.60;1.00;;;;;;5117128;28;20524;-56
2022/05/27 04:21:30;;;;;;;1.47;0.30;;;14.60;1.00;;;;;;5118211;28;20484;-57
2022/05/27 04:23:58;;;;;;;0.60;0.40;;;14.70;1.00;;;;;;5117500;28;20539;-57
2022/05/27 04:26:27;;;;;;;0.70;0.50;;;14.70;1.00;;;;;;5116531;28;20452;-57
2022/05/27 04:28:54;;;;;;;0.97;0.30;;;14.70;1.00;;;;;;5115486;28;20492;-55
2022/05/27 04:31:21;;;;;;;0.50;0.40;;;14.70;1.00;;;;;;5115693;28;20741;-56
2022/05/27 04:33:48;;;;;;;0.57;0.33;;;14.80;1.00;;;;;;5115445;28;20579;-55
2022/05/27 04:36:16;;;;;;;0.97;0.33;;;14.70;1.00;;;;;;5116221;28;20485;-57
2022/05/27 04:38:43;;;;;;;0.80;0.40;;;14.80;1.00;;;;;;5116186;28;20452;-57
2022/05/27 04:41:10;;;;;;;0.50;0.30;;;14.80;1.00;;;;;;5116396;28;20551;-53
2022/05/27 04:43:38;;;;;;;0.53;0.37;;;14.80;1.00;;;;;;5116982;28;20532;-57
2022/05/27 04:46:05;;;;;;;0.83;0.40;;;14.80;1.00;;;;;;5116649;28;20535;-54
2022/05/27 04:48:32;;;;;;;0.50;0.30;;;14.80;1.00;;;;;;5116576;28;21110;-55
2022/05/27 04:50:59;;;;;;;0.60;0.40;;;14.80;1.00;;;;;;5117081;28;20531;-56
2022/05/27 04:53:26;;;;;;;0.57;0.30;;;14.90;1.00;;;;;;5116696;28;20476;-53
2022/05/27 04:55:53;;;;;;;0.70;0.40;;;15.00;1.00;;;;;;5117337;28;20461;-57
2022/05/27 04:58:22;;;;;;;1.13;0.40;;;15.10;1.00;;;;;;5116801;28;20445;-57
2022/05/27 05:00:50;;;;;;;0.80;0.30;;;15.10;1.00;;;;;;5117456;28;20552;-55
2022/05/27 05:03:17;;;;;;;0.80;0.40;;;15.10;1.00;;;;;;5116939;28;20932;-57
2022/05/27 05:05:44;;;;;;;0.53;0.40;;;15.10;1.00;;;;;;5116540;28;20535;-56
2022/05/27 05:08:17;;;;;;;0.80;0.50;;;15.20;1.00;;;;;;5115734;28;20910;-55
2022/05/27 05:10:44;;;;;;;1.13;0.40;;;15.30;1.00;;;;;;5116891;28;20464;-56
2022/05/27 05:13:11;;;;;;;1.23;0.40;;;15.40;99.90;;;;;;5116765;28;20539;-55
2022/05/27 05:15:38;;;;;;;1.60;0.50;;;15.40;99.90;;;;;;5116636;28;20575;-57
2022/05/27 05:18:09;;;;;;;0.73;0.40;;;15.60;99.90;;;;;;5116630;28;20440;-58
2022/05/27 05:20:36;;;;;;;0.50;0.40;;;15.70;99.90;;;;;;5116381;28;20479;-59
2022/05/27 05:23:03;;;;;;;0.83;0.40;;;15.70;99.90;;;;;;5116274;28;20487;-55
2022/05/27 05:25:32;;;;;;;0.63;0.40;;;15.70;99.90;;;;;;5115949;28;20447;-57
2022/05/27 05:27:59;;;;;;;0.50;0.40;;;15.70;99.90;;;;;;5116493;28;20445;-58
2022/05/27 05:30:27;;;;;;;0.60;0.40;;;15.80;99.90;;;;;;5116522;28;20538;-57
2022/05/27 05:32:54;;;;;;;1.07;0.50;;;15.80;99.90;;;;;;5115978;28;20551;-57
2022/05/27 05:35:23;;;;;;;0.70;0.40;;;15.80;99.90;;;;;;5115253;28;20746;-55
2022/05/27 05:37:51;;;;;;;0.60;0.40;;;15.90;99.90;;;;;;5113886;28;20536;-58
2022/05/27 05:40:18;;;;;;;0.57;0.30;;;15.90;99.90;;;;;;5114376;28;20547;-56
2022/05/27 05:42:46;;;;;;;0.97;0.40;;;16.00;99.90;;;;;;5113526;28;20493;-55
2022/05/27 05:45:16;;;;;;;0.63;0.40;;;16.10;99.90;;;;;;5116098;28;20546;-57
2022/05/27 05:47:46;;;;;;;0.70;0.50;;;16.20;1.00;;;;;;5123168;27;20460;-57
2022/05/27 05:50:15;;;;;;;0.57;0.40;;;16.30;1.00;;;;;;5133350;27;20566;-60
2022/05/27 05:52:43;;;;;;;0.80;0.47;;;16.40;99.90;;;;;;5139965;27;20574;-57
2022/05/27 05:55:12;;;;;;;0.83;0.40;;;16.40;99.90;;;;;;5140885;27;20573;-58
2022/05/27 05:57:42;;;;;;;0.50;0.40;;;16.40;10.40;;;;;;5139965;27;20530;-57
2022/05/27 06:00:11;;;;;;;0.60;0.40;;;16.50;99.90;;;;;;5139975;27;20455;-58
2022/05/27 06:02:39;;;;;;;3.33;1.17;;;16.50;99.90;;;;;;5139116;27;20455;-57
2022/05/27 06:05:07;;;;;;;0.90;0.60;;;16.60;99.90;;;;;;5138709;27;20447;-57
2022/05/27 06:07:35;;;;;;;0.83;0.43;;;16.60;1.00;;;;;;5138400;27;20538;-56
2022/05/27 06:10:05;;;;;;;0.83;0.40;;;16.60;1.00;;;;;;5138959;27;20555;-57
2022/05/27 06:12:34;;;;;;;0.80;0.40;;;16.60;1.00;;;;;;5136733;27;20750;-57
2022/05/27 06:15:01;;;;;;;0.70;0.40;;;16.60;1.00;;;;;;5140428;27;20591;-57
2022/05/27 06:17:29;;;;;;;0.90;0.47;;;16.50;99.90;;;;;;5129818;27;20535;-57
2022/05/27 06:19:56;;;;;;;0.40;0.30;;;16.60;99.90;;;;;;5119541;28;20571;-56
2022/05/27 06:22:22;;;;;;;0.60;0.30;;;16.60;99.90;;;;;;5128524;27;20949;-55
2022/05/27 06:24:52;;;;;;;1.13;0.50;;;16.60;99.90;;;;;;5138541;27;20453;-57
2022/05/27 06:27:20;;;;;;;0.60;0.40;;;16.70;99.90;;;;;;5122006;27;20457;-56
2022/05/27 06:35:16;;;;;;;0.60;0.30;;;16.60;99.90;;;;;;5118178;28;20577;-56
2022/05/27 06:37:42;;;;;;;0.83;0.50;;;16.80;1.00;;;;;;5119118;28;20527;-56
2022/05/27 06:40:11;;;;;;;0.70;0.40;;;16.90;99.90;;;;;;5117527;28;20551;-56
2022/05/27 06:42:39;;;;;;;1.20;0.50;;;17.00;99.90;;;;;;5116206;27;20952;-55
2022/05/27 06:45:09;;;;;;;0.70;0.40;;;17.00;1.00;;;;;;5119319;27;20547;-57
2022/05/27 06:47:36;;;;;;;0.70;0.40;;;17.10;1.00;;;;;;5131160;27;21005;-56
2022/05/27 06:50:05;;;;;;;0.67;0.40;;;17.20;1.00;;;;;;5132299;27;20534;-56
2022/05/27 06:52:32;;;;;;;0.63;0.50;;;17.20;99.90;;;;;;5131713;27;20479;-55
2022/05/27 06:54:59;;;;;;;0.60;0.40;;;17.30;99.90;;;;;;5138870;27;20522;-56
2022/05/27 06:57:26;;;;;;;5.70;0.50;;;17.30;99.90;;;;;;5137582;27;20447;-57
2022/05/27 06:59:54;;;;;;;0.70;0.50;;;17.30;99.90;;;;;;5138311;27;20451;-56
2022/05/27 07:02:22;;;;;;;0.67;0.40;;;17.30;99.90;;;;;;5137669;27;20468;-56
2022/05/27 07:04:49;;;;;;;0.80;0.50;;;17.40;99.90;;;;;;5137750;27;20448;-57
2022/05/27 07:07:16;;;;;;;1.90;0.50;;;17.10;99.90;;;;;;5137374;27;20471;-54
2022/05/27 07:09:43;;;;;;;0.70;0.40;;;17.10;1.00;;;;;;5137988;27;20451;-56
2022/05/27 07:12:12;;;;;;;1.03;0.47;;;17.10;1.00;;;;;;5137120;27;21191;-56
2022/05/27 07:14:39;;;;;;;5.63;0.40;;;17.10;1.00;;;;;;5136857;27;20487;-55
2022/05/27 07:17:08;;;;;;;1.00;0.60;;;17.30;99.90;;;;;;5149337;27;20534;-53
2022/05/27 07:19:35;;;;;;;0.60;0.40;;;17.30;99.90;;;;;;5137676;27;20548;-54
2022/05/27 07:22:02;;;;;;;1.00;0.50;;;17.40;99.90;;;;;;5124549;27;20525;-51
2022/05/27 07:24:30;;;;;;;0.70;0.40;;;17.20;42.70;;;;;;5123527;27;20186;-56
2022/05/27 07:26:57;;;;;;;0.70;0.57;;;17.30;99.90;;;;;;5140647;27;20874;-55
2022/05/27 07:29:24;;;;;;;3.90;0.40;;;17.30;99.90;;;;;;5158128;27;20459;-57
2022/05/27 07:31:51;;;;;;;0.70;0.50;;;17.40;1.00;;;;;;5142703;27;20443;-56
2022/05/27 07:34:19;;;;;;;7.17;3.37;;;17.40;1.00;;;;;;5143078;27;20490;-52
2022/05/27 07:36:46;;;;;;;1.87;0.90;;;17.50;1.00;;;;;;5151299;27;20444;-56
2022/05/27 07:39:13;;;;;;;1.00;0.50;;;17.60;1.00;;;;;;5136762;27;20533;-56
2022/05/27 07:41:40;;;;;;;2.03;0.50;;;17.50;1.00;;;;;;5158292;27;20824;-52
2022/05/27 07:44:07;;;;;;;0.60;0.40;;;17.40;1.00;;;;;;5158773;27;20454;-54
2022/05/27 07:46:36;;;;;;;0.70;0.40;;;17.70;1.00;;;;;;5158624;27;20980;-55
2022/05/27 07:49:04;;;;;;;0.50;0.40;;;17.90;99.90;;;;;;5157651;27;20924;-56
2022/05/27 07:51:32;;;;;;;0.53;0.40;;;18.00;99.90;;;;;;5158778;27;20741;-57
2022/05/27 07:53:59;;;;;;;0.90;0.40;;;18.10;1.00;;;;;;5158477;27;20479;-57
2022/05/27 07:56:26;;;;;;;0.83;0.50;;;18.30;1.00;;;;;;5158805;27;20478;-56
2022/05/27 07:58:54;;;;;;;3.57;0.50;;;18.30;1.00;;;;;;5157844;27;20561;-51
2022/05/27 08:01:20;;;;;;;0.60;0.40;;;18.20;1.00;;;;;;5146842;27;20539;-51
2022/05/27 08:03:47;;;;;;;0.70;0.50;;;18.40;1.00;;;;;;5154778;27;20535;-51
2022/05/27 08:06:14;;;;;;;0.80;0.50;;;18.00;1.00;;;;;;5156586;27;20537;-57
2022/05/27 08:08:42;;;;;;;1.13;0.40;;;18.10;1.00;;;;;;5155783;27;20439;-57
2022/05/27 08:11:09;;;;;;;0.90;0.40;;;17.60;1.00;;;;;;5157894;27;20482;-57
2022/05/27 08:13:37;;;;;;;5.80;0.60;;;17.50;99.90;;;;;;5157580;27;20534;-57
2022/05/27 08:16:04;;;;;;;0.70;0.45;;;17.50;1.00;;;;;;5157998;27;20448;-48
2022/05/27 08:18:31;;;;;;;2.70;0.60;;;17.70;99.90;;;;;;5157821;27;20579;-53
2022/05/27 08:20:58;;;;;;;0.63;0.47;;;17.60;1.00;;;;;;5156743;27;20435;-54
2022/05/27 08:23:26;;;;;;;0.70;0.47;;;18.00;99.90;;;;;;5157650;27;20443;-55
2022/05/27 08:25:55;;;;;;;0.70;0.50;;;18.30;21.80;;;;;;5157626;27;20508;-48
2022/05/27 08:28:24;;;;;;;0.87;0.60;;;18.30;1.00;;;;;;5156409;27;20480;-50
2022/05/27 08:30:51;;;;;;;2.80;0.80;;;18.40;1.00;;;;;;5142768;27;20917;-53
2022/05/27 08:33:18;;;;;;;0.67;0.40;;;18.30;1.00;;;;;;5135309;27;20452;-54
2022/05/27 08:38:39;;;;;;;0.93;0.40;;;18.00;1.00;;;;;;5079940;27;20417;-52
2022/05/27 08:41:32;;;;;;;0.57;0.30;;;18.00;1.00;;;;;;5135618;27;20497;-50
2022/05/27 08:44:15;;;;;;;0.70;0.40;;;17.90;1.00;;;;;;5131402;27;20767;-53
2022/05/27 08:46:51;;;;;;;1.23;0.40;;;17.80;1.00;;;;;;5133537;27;20524;-52
2022/05/27 08:49:21;;;;;;;0.70;0.50;;;18.10;1.00;;;;;;5133905;27;20447;-49
2022/05/27 08:51:56;;;;;;;1.00;0.50;;;18.30;1.00;;;;;;5135227;27;20439;-50
2022/05/27 08:54:28;;;;;;;1.53;0.40;;;18.20;1.00;;;;;;5135879;27;20538;-51
2022/05/27 08:59:50;;;;;;;0.87;0.60;;;18.20;1.00;;;;;;5135441;27;20882;-48
2022/05/27 09:02:25;;;;;;;0.70;0.43;;;18.40;1.00;;;;;;5135414;27;20439;-49
2022/05/27 09:04:59;;;;;;;1.07;0.40;;;18.40;1.00;;;;;;5135758;27;20463;-53
2022/05/27 09:07:32;;;;;;;0.77;0.40;;;18.40;1.00;;;;;;5135277;27;20451;-51
2022/05/27 09:10:01;;;;;;;1.10;0.50;;;18.40;1.00;;;;;;5134686;27;20454;-53
2022/05/27 09:12:54;;;;;;;0.60;0.40;;;18.30;1.00;;;;;;5134920;27;20444;-53
2022/05/27 09:15:36;;;;;;;0.63;0.40;;;18.40;1.00;;;;;;5134264;27;20484;-56
2022/05/27 09:18:10;;;;;;;0.97;0.40;;;18.20;1.00;;;;;;5126186;27;20543;-51
2022/05/27 09:20:56;;;;;;;0.70;0.40;;;18.10;1.00;;;;;;5134435;27;20551;-55
2022/05/27 09:23:54;;;;;;;0.83;0.53;;;18.20;1.00;;;;;;5136302;27;20946;-55
2022/05/27 09:26:30;;;;;;;0.90;0.50;;;18.80;99.90;;;;;;5133063;27;20443;-53
2022/05/27 09:31:54;;;;;;;2.43;0.40;;;19.30;99.90;;;;;;5133046;27;20544;-56
2022/05/27 09:34:25;;;;;;;1.17;0.40;;;19.50;20.50;;;;;;5132363;27;20955;-57
2022/05/27 09:36:55;;;;;;;0.63;0.40;;;19.60;11.60;;;;;;5131414;27;20447;-58
2022/05/27 09:39:24;;;;;;;0.93;0.50;;;19.60;1.00;;;;;;5132366;27;20547;-58
2022/05/27 09:41:56;;;;;;;0.50;0.40;;;19.60;1.00;;;;;;5128719;27;20455;-52
2022/05/27 09:44:33;;;;;;;0.73;0.47;;;19.50;1.00;;;;;;5130121;28;20459;-56
2022/05/27 09:47:07;;;;;;;0.50;0.40;;;19.60;1.00;;;;;;5133877;28;20492;-59
2022/05/27 09:49:40;;;;;;;1.80;0.40;;;20.00;1.00;;;;;;5131305;27;20447;-59
2022/05/27 09:52:14;;;;;;;0.50;0.40;;;19.90;1.00;;;;;;5130312;27;20764;-59
2022/05/27 09:54:49;;;;;;;0.53;0.33;;;20.00;1.00;;;;;;5123762;28;20586;-58
2022/05/27 09:57:25;;;;;;;2.83;0.40;;;19.90;1.00;;;;;;5122941;27;20546;-58
2022/05/27 09:59:56;;;;;;;0.73;0.40;;;19.80;1.00;;;;;;5123088;28;20459;-59
2022/05/27 10:02:31;;;;;;;1.03;0.37;;;19.90;1.00;;;;;;5124660;28;20890;-60
2022/05/27 10:05:00;;;;;;;0.90;0.40;;;19.80;1.00;;;;;;5117849;28;20829;-59
2022/05/27 10:07:34;;;;;;;0.83;0.40;;;20.00;1.00;;;;;;5128069;27;20834;-58
2022/05/27 10:10:22;;;;;;;0.50;0.40;;;20.40;1.00;;;;;;5132565;27;20950;-59
2022/05/27 10:12:50;;;;;;;1.53;0.40;;;20.60;1.00;;;;;;5128456;27;20470;-58
2022/05/27 10:15:40;;;;;;;2.60;0.40;;;20.50;1.00;;;;;;5127977;27;20470;-56
2022/05/27 10:18:20;;;;;;;0.60;0.40;;;20.70;1.00;;;;;;5112586;27;20534;-57
2022/05/27 10:20:53;;;;;;;0.60;0.40;;;20.90;1.00;;;;;;5129032;27;20595;-57
2022/05/27 10:23:26;;;;;;;0.60;0.40;;;20.80;1.00;;;;;;5126844;27;20490;-57
2022/05/27 10:25:53;;;;;;;0.80;0.50;;;21.00;1.00;;;;;;5128836;27;20452;-58
2022/05/27 10:28:29;;;;;;;0.80;0.50;;;21.70;1.00;;;;;;5128012;27;20448;-58
2022/05/27 10:30:59;;;;;;;0.57;0.30;;;22.00;1.00;;;;;;5128026;27;20919;-58
2022/05/27 10:33:39;;;;;;;0.80;0.33;;;22.20;1.00;;;;;;5130178;27;20543;-59
2022/05/27 10:36:32;;;;;;;0.80;0.50;;;22.20;1.00;;;;;;5130891;27;20777;-59
2022/05/27 10:39:03;;;;;;;0.50;0.30;;;22.10;1.00;;;;;;5108025;28;20536;-59
2022/05/27 10:41:46;;;;;;;0.53;0.40;;;22.40;1.00;;;;;;5121133;28;20465;-59
2022/05/27 10:44:22;;;;;;;0.50;0.30;;;22.40;1.00;;;;;;5114896;28;20951;-59
2022/05/27 10:46:53;;;;;;;0.50;0.40;;;22.70;1.00;;;;;;5114684;28;20934;-59
2022/05/27 10:49:43;;;;;;;0.50;0.30;;;22.90;1.00;;;;;;5114187;28;20444;-59
2022/05/27 10:52:23;;;;;;;0.50;0.40;;;22.70;1.00;;;;;;5114777;28;20433;-58
2022/05/27 10:55:07;;;;;;;0.60;0.40;;;22.30;1.00;;;;;;5113748;28;20456;-59
2022/05/27 11:03:48;;;;;;;0.60;0.30;;;21.70;1.00;;;;;;5055638;28;20443;-58
2022/05/27 11:06:33;;;;;;;0.50;0.30;;;21.50;1.00;;;;;;5106270;27;20457;-59
2022/05/27 11:09:16;;;;;;;0.60;0.30;;;21.40;1.00;;;;;;5114228;28;20831;-58
2022/05/27 11:11:48;;;;;;;0.87;0.40;;;21.20;1.00;;;;;;5115780;28;20484;-58
2022/05/27 11:17:28;;;;;;;0.60;0.40;;;21.50;1.00;;;;;;5114014;27;20448;-58
2022/05/27 11:20:25;;;;;;;0.70;0.37;;;21.40;1.00;;;;;;5097247;28;20555;-57
2022/05/27 11:23:04;;;;;;;0.50;0.30;;;21.20;1.00;;;;;;5098103;28;20855;-56
2022/05/27 11:25:48;;;;;;;0.53;0.30;;;21.30;1.00;;;;;;5104929;28;20998;-59
2022/05/27 11:28:45;;;;;;;0.50;0.40;;;21.30;1.00;;;;;;5105049;28;20460;-59
2022/05/27 11:31:25;;;;;;;0.70;0.40;;;21.40;1.00;;;;;;5106763;28;20492;-58
2022/05/27 11:33:56;;;;;;;0.50;0.30;;;21.40;1.00;;;;;;5126749;27;20459;-60
2022/05/27 11:36:55;;;;;;;0.77;0.40;;;21.60;1.00;;;;;;5113173;27;20470;-59
2022/05/27 11:39:51;;;;;;;0.87;0.40;;;21.50;1.00;;;;;;5108903;27;20457;-60
2022/05/27 11:42:37;;;;;;;0.40;0.30;;;21.50;1.00;;;;;;5118367;27;20456;-59
2022/05/27 11:45:13;;;;;;;0.90;0.40;;;21.50;1.00;;;;;;5112784;27;20955;-59
2022/05/27 11:48:03;;;;;;;0.50;0.30;;;21.60;1.00;;;;;;5117877;27;20558;-59
2022/05/27 11:50:44;;;;;;;0.80;0.63;;;21.70;1.00;;;;;;5109871;27;20476;-59
2022/05/27 11:53:32;;;;;;;0.53;0.30;;;21.70;1.00;;;;;;5112390;28;20467;-58
2022/05/27 11:56:09;;;;;;;0.73;0.40;;;21.90;1.00;;;;;;5112422;28;20563;-59
2022/05/27 11:58:46;;;;;;;0.50;0.40;;;21.80;1.00;;;;;;5112660;28;20547;-59
2022/05/27 12:01:21;;;;;;;0.70;0.30;;;21.80;1.00;;;;;;5112893;28;20898;-59
2022/05/27 12:03:53;;;;;;;0.97;0.33;;;21.80;1.00;;;;;;5114447;28;20905;-61
2022/05/27 12:06:29;;;;;;;0.50;0.37;;;22.00;1.00;;;;;;5115324;28;20452;-60
2022/05/27 12:09:00;;;;;;;0.40;0.30;;;22.40;1.00;;;;;;5114290;28;20494;-58
2022/05/27 12:11:35;;;;;;;1.60;0.40;;;22.80;1.00;;;;;;5111736;28;20481;-59
2022/05/27 12:14:05;;;;;;;0.50;0.40;;;23.80;1.00;;;;;;5115624;28;20474;-59
2022/05/27 12:16:37;;;;;;;0.50;0.30;;;24.60;1.00;;;;;;5114937;27;20475;-59
2022/05/27 12:19:08;;;;;;;0.50;0.30;;;24.50;1.00;;;;;;5114483;27;20892;-59
2022/05/27 12:21:40;;;;;;;0.60;0.40;;;24.20;1.00;;;;;;5111441;28;20559;-58
2022/05/27 12:24:16;;;;;;;0.50;0.30;;;24.80;1.00;;;;;;5112363;28;20532;-58
2022/05/27 12:26:45;;;;;;;0.57;0.40;;;24.70;1.00;;;;;;5114239;28;20923;-58
2022/05/27 12:29:14;;;;;;;0.50;0.40;;;25.10;1.00;;;;;;5112842;28;20536;-59
2022/05/27 12:31:42;;;;;;;0.40;0.30;;;25.40;1.00;;;;;;5113640;28;20979;-59
2022/05/27 12:34:37;;;;;;;0.60;0.40;;;25.30;1.00;;;;;;5115082;28;20904;-59
2022/05/27 12:37:24;;;;;;;0.50;0.30;;;24.80;1.00;;;;;;5113283;28;20564;-60
2022/05/27 12:39:55;;;;;;;0.97;0.40;;;24.60;1.00;;;;;;5112542;28;20488;-60
2022/05/27 12:42:39;;;;;;;0.40;0.30;;;24.00;1.00;;;;;;5114210;28;20449;-60
2022/05/27 12:45:22;;;;;;;0.50;0.40;;;24.00;1.00;;;;;;5115317;28;20498;-59
2022/05/27 12:47:52;;;;;;;0.40;0.30;;;23.70;1.00;;;;;;5114951;28;20516;-59
2022/05/27 12:50:26;;;;;;;0.50;0.40;;;23.40;1.00;;;;;;5112465;28;20852;-59
2022/05/27 12:52:56;;;;;;;0.40;0.30;;;23.20;1.00;;;;;;5114545;28;20760;-59
2022/05/27 13:01:30;;;;;;;0.60;0.40;;;22.80;1.00;;;;;;5112835;28;20882;-59
2022/05/27 13:03:59;;;;;;;0.83;0.70;;;22.40;1.00;;;;;;5113550;28;20452;-60
2022/05/27 13:06:43;;;;;;;0.40;0.27;;;22.10;1.00;;;;;;5112475;28;20441;-59
2022/05/27 13:09:37;;;;;;;1.00;0.57;;;22.10;1.00;;;;;;5094507;28;20911;-59
2022/05/27 13:12:04;;;;;;;0.90;0.40;;;22.20;1.00;;;;;;5093512;28;20485;-60
2022/05/27 13:14:45;;;;;;;0.40;0.30;;;22.30;1.00;;;;;;5094544;28;20457;-59
2022/05/27 13:17:32;;;;;;;1.60;0.50;;;22.50;1.00;;;;;;5106490;28;20555;-59
2022/05/27 13:20:09;;;;;;;0.40;0.30;;;22.70;1.00;;;;;;5114154;28;20561;-60
2022/05/27 13:22:39;;;;;;;0.60;0.40;;;22.60;1.00;;;;;;5114823;28;20971;-59
2022/05/27 13:25:25;;;;;;;1.00;0.60;;;22.40;1.00;;;;;;5113765;28;20818;-60
2022/05/27 13:27:57;;;;;;;0.50;0.33;;;22.40;1.00;;;;;;5113265;28;20455;-60
2022/05/27 13:30:53;;;;;;;0.50;0.30;;;22.30;1.00;;;;;;5113846;28;20567;-59
2022/05/27 13:33:26;;;;;;;0.43;0.30;;;22.10;1.00;;;;;;5113929;28;20455;-60
2022/05/27 13:35:55;;;;;;;0.50;0.40;;;22.00;1.00;;;;;;5110934;28;20915;-60
2022/05/27 13:38:29;;;;;;;0.50;0.37;;;21.90;1.00;;;;;;5107434;28;20468;-59
2022/05/27 13:41:00;;;;;;;0.60;0.40;;;22.10;1.00;;;;;;5110415;28;20448;-61
2022/05/27 13:43:34;;;;;;;0.60;0.30;;;22.00;1.00;;;;;;5109754;28;20547;-58
2022/05/27 13:46:12;;;;;;;0.50;0.40;;;21.70;1.00;;;;;;5107552;28;20440;-60
2022/05/27 13:48:47;;;;;;;0.40;0.30;;;21.90;1.00;;;;;;5095107;28;20461;-60
2022/05/27 13:51:16;;;;;;;0.40;0.30;;;22.00;1.00;;;;;;5092773;28;20484;-61
2022/05/27 13:53:44;;;;;;;0.90;0.40;;;22.10;1.00;;;;;;5107673;28;20517;-59
2022/05/27 13:56:14;;;;;;;0.60;0.40;;;22.20;1.00;;;;;;5097156;28;20454;-59